TimeEEST,TemperatureF,Dew PointF,Humidity,Sea Level PressureIn,VisibilityMPH,Wind Direction,Wind SpeedMPH,Gust SpeedMPH,PrecipitationIn,Events,Conditions,WindDirDegrees,DateUTC
12:20 AM,71.6,59.0,64,29.77,-9999.0,East,4.6,-,N/A,,Clear,100,2013-05-22 21:20:00
12:50 AM,71.6,59.0,64,29.77,-9999.0,Variable,2.3,-,N/A,,Clear,0,2013-05-22 21:50:00
1:20 AM,75.2,53.6,47,29.77,-9999.0,Variable,2.3,-,N/A,,Clear,0,2013-05-22 22:20:00
1:50 AM,71.6,55.4,57,29.74,-9999.0,Variable,2.3,-,N/A,,Clear,0,2013-05-22 22:50:00
2:20 AM,69.8,57.2,64,29.74,-9999.0,Variable,2.3,-,N/A,,Clear,0,2013-05-22 23:20:00
2:50 AM,71.6,57.2,60,29.71,-9999.0,ENE,3.5,-,N/A,,Clear,70,2013-05-22 23:50:00
3:00 AM,71,56,50,29.73,6,ENE,3.5,,,,,70,2013-05-23 00:00:00
3:20 AM,71.6,55.4,57,29.71,-9999.0,East,4.6,-,N/A,,Clear,80,2013-05-23 00:20:00
3:50 AM,69.8,57.2,64,29.71,-9999.0,East,4.6,-,N/A,,Clear,80,2013-05-23 00:50:00
4:20 AM,68.0,57.2,68,29.68,-9999.0,Variable,2.3,-,N/A,,Clear,0,2013-05-23 01:20:00
4:50 AM,69.8,59.0,68,29.68,-9999.0,East,4.6,-,N/A,,Clear,100,2013-05-23 01:50:00
5:20 AM,68.0,59.0,73,29.68,-9999.0,East,3.5,-,N/A,,Clear,90,2013-05-23 02:20:00
5:50 AM,69.8,57.2,64,29.68,-9999.0,ESE,6.9,-,N/A,,Clear,120,2013-05-23 02:50:00
6:20 AM,71.6,55.4,57,29.68,-9999.0,ESE,8.1,-,N/A,,Clear,120,2013-05-23 03:20:00
6:50 AM,71.6,57.2,60,29.65,-9999.0,ESE,9.2,-,N/A,,Clear,110,2013-05-23 03:50:00
7:20 AM,73.4,55.4,53,29.68,6.2,ESE,6.9,-,N/A,,Mostly Cloudy,110,2013-05-23 04:20:00
7:50 AM,75.2,55.4,50,29.65,6.2,East,8.1,-,N/A,,Scattered Clouds,90,2013-05-23 04:50:00
8:20 AM,77.0,53.6,44,29.65,6.2,ESE,11.5,-,N/A,,Scattered Clouds,110,2013-05-23 05:20:00
8:50 AM,78.8,53.6,42,29.65,6.2,ESE,9.2,-,N/A,,Scattered Clouds,120,2013-05-23 05:50:00
9:00 AM,78,53,31,29.65,6,ESE,9.2,,,,Partly Cloudy,120,2013-05-23 06:00:00
9:20 AM,78.8,53.6,42,29.62,6.2,ESE,13.8,-,N/A,,Scattered Clouds,110,2013-05-23 06:20:00
9:50 AM,78.8,51.8,39,29.65,6.2,ESE,12.7,-,N/A,,Scattered Clouds,110,2013-05-23 06:50:00
10:20 AM,78.8,53.6,42,29.62,6.2,ESE,12.7,-,N/A,,Scattered Clouds,110,2013-05-23 07:20:00
10:50 AM,78.8,53.6,42,29.65,6.2,ESE,10.4,-,N/A,,Scattered Clouds,110,2013-05-23 07:50:00
10:59 AM,78.8,53.6,42,29.62,6.2,ESE,9.2,-,N/A,Rain,Light Rain Showers,110,2013-05-23 07:59:00
11:20 AM,78.8,57.2,47,29.62,6.2,ESE,8.1,-,N/A,,Scattered Clouds,110,2013-05-23 08:20:00
11:50 AM,80.6,53.6,39,29.62,6.2,ESE,9.2,-,N/A,,Scattered Clouds,110,2013-05-23 08:50:00
12:20 PM,82.4,53.6,37,29.62,6.2,SE,11.5,-,N/A,,Scattered Clouds,140,2013-05-23 09:20:00
12:50 PM,80.6,57.2,45,29.59,6.2,SE,12.7,-,N/A,,Partly Cloudy,140,2013-05-23 09:50:00
1:20 PM,84.2,55.4,37,29.62,-9999.0,SE,10.4,-,N/A,,Clear,140,2013-05-23 10:20:00
1:50 PM,87.8,53.6,31,29.59,-9999.0,South,10.4,-,N/A,,Clear,190,2013-05-23 10:50:00
2:20 PM,86.0,55.4,35,29.59,-9999.0,South,13.8,-,N/A,,Clear,190,2013-05-23 11:20:00
2:50 PM,84.2,57.2,40,29.59,-9999.0,SSW,16.1,-,N/A,,Clear,200,2013-05-23 11:50:00
3:00 PM,85,56,27,29.59,6,SSW,16.1,,,,Partly Cloudy,200,2013-05-23 12:00:00
3:20 PM,86.0,51.8,31,29.56,-9999.0,South,26.5,-,N/A,,Clear,190,2013-05-23 12:20:00
3:50 PM,84.2,53.6,35,29.56,-9999.0,South,23.0,-,N/A,,Clear,190,2013-05-23 12:50:00
4:20 PM,82.4,53.6,37,29.56,-9999.0,South,23.0,-,N/A,,Clear,190,2013-05-23 13:20:00
4:50 PM,82.4,51.8,35,29.56,-9999.0,South,25.3,-,N/A,,Clear,190,2013-05-23 13:50:00
5:20 PM,80.6,55.4,42,29.56,-9999.0,SSW,18.4,-,N/A,,Clear,200,2013-05-23 14:20:00
5:50 PM,82.4,51.8,35,29.56,-9999.0,SSW,20.7,-,N/A,,Clear,200,2013-05-23 14:50:00
6:20 PM,82.4,51.8,35,29.56,-9999.0,SSW,23.0,-,N/A,,Clear,210,2013-05-23 15:20:00
6:50 PM,78.8,55.4,44,29.56,-9999.0,SSW,18.4,-,N/A,,Clear,210,2013-05-23 15:50:00
7:20 PM,77.0,55.4,47,29.59,-9999.0,SW,15.0,-,N/A,,Clear,220,2013-05-23 16:20:00
7:50 PM,75.2,57.2,53,29.59,-9999.0,West,8.1,-,N/A,,Clear,270,2013-05-23 16:50:00
8:20 PM,75.2,53.6,47,29.62,-9999.0,West,9.2,-,N/A,,Clear,260,2013-05-23 17:20:00
8:50 PM,75.2,53.6,47,29.62,-9999.0,WSW,9.2,-,N/A,,Clear,240,2013-05-23 17:50:00
9:00 PM,75,53,36,29.64,6,WSW,9.2,,,,,240,2013-05-23 18:00:00
9:20 PM,77.0,51.8,41,29.65,-9999.0,SW,12.7,-,N/A,,Clear,230,2013-05-23 18:20:00
9:50 PM,77.0,51.8,41,29.65,-9999.0,SW,12.7,-,N/A,,Clear,230,2013-05-23 18:50:00
10:20 PM,77.0,51.8,41,29.68,-9999.0,SW,19.6,-,N/A,,Clear,230,2013-05-23 19:20:00
10:50 PM,75.2,53.6,47,29.68,-9999.0,SW,12.7,-,N/A,,Clear,230,2013-05-23 19:50:00
11:20 PM,73.4,53.6,50,29.68,-9999.0,SW,10.4,-,N/A,,Clear,230,2013-05-23 20:20:00
11:50 PM,71.6,55.4,57,29.68,-9999.0,West,8.1,-,N/A,,Clear,260,2013-05-23 20:50:00